Time,TemperatureF,DewpointF,PressureIn,WindDirection,WindDirectionDegrees,WindSpeedMPH,WindSpeedGustMPH,Humidity,HourlyPrecipIn,Conditions,Clouds,dailyrainin,SoftwareType,DateUTC
2013-11-03 00:00:00,66.7,39.0,29.91,East,90,2.5,2.5,36,0.00,,---,0.00,VWS V14.01,2013-11-03 07:00:00,
2013-11-03 00:05:00,66.2,41.2,29.91,East,90,2.5,2.5,40,0.00,,---,0.00,VWS V14.01,2013-11-03 07:05:00,
2013-11-03 00:10:00,65.8,40.9,29.91,East,90,2.5,2.5,40,0.00,,---,0.00,VWS V14.01,2013-11-03 07:10:00,
2013-11-03 00:15:00,65.8,40.9,29.91,East,90,2.5,2.5,40,0.00,,---,0.00,VWS V14.01,2013-11-03 07:15:00,
2013-11-03 00:20:00,66.0,41.0,29.91,East,90,2.5,2.5,40,0.00,,---,0.00,VWS V14.01,2013-11-03 07:20:00,
2013-11-03 00:25:00,66.0,41.0,29.91,East,90,2.5,2.5,40,0.00,,---,0.00,VWS V14.01,2013-11-03 07:25:00,
2013-11-03 00:30:00,66.2,39.9,29.91,East,90,2.5,2.5,38,0.00,,---,0.00,VWS V14.01,2013-11-03 07:30:00,
2013-11-03 00:35:00,66.2,41.2,29.91,East,90,2.5,2.5,40,0.00,,---,0.00,VWS V14.01,2013-11-03 07:35:00,
2013-11-03 00:40:00,66.2,41.8,29.91,East,90,2.5,2.5,41,0.00,,---,0.00,VWS V14.01,2013-11-03 07:40:00,
2013-11-03 00:45:00,66.4,42.6,29.91,East,90,2.5,2.5,42,0.00,,---,0.00,VWS V14.01,2013-11-03 07:45:00,
2013-11-03 00:50:00,66.2,42.5,29.91,East,90,2.5,2.5,42,0.00,,---,0.00,VWS V14.01,2013-11-03 07:50:00,
2013-11-03 00:55:00,66.2,43.1,29.91,SSE,158,9.8,9.8,43,0.00,,---,0.00,VWS V14.01,2013-11-03 07:55:00,
2013-11-03 01:00:00,66.2,43.1,29.91,SSE,158,9.8,9.8,43,0.00,,---,0.00,VWS V14.01,2013-11-03 08:00:00,
2013-11-03 01:06:00,66.0,42.3,29.91,SSE,158,9.8,9.8,42,0.00,,---,0.00,VWS V14.01,2013-11-03 08:06:00,
2013-11-03 01:11:00,66.2,43.1,29.91,SSE,158,9.8,9.8,43,0.00,,---,0.00,VWS V14.01,2013-11-03 08:11:00,
2013-11-03 01:16:00,66.2,42.5,29.91,SSE,158,9.8,9.8,42,0.00,,---,0.00,VWS V14.01,2013-11-03 08:16:00,
2013-11-03 01:21:00,66.2,43.1,29.91,SSE,158,9.8,9.8,43,0.00,,---,0.00,VWS V14.01,2013-11-03 08:21:00,
2013-11-03 01:26:00,66.2,43.1,29.91,SSE,158,9.8,9.8,43,0.00,,---,0.00,VWS V14.01,2013-11-03 08:26:00,
2013-11-03 01:31:00,66.0,42.9,29.91,SSE,158,9.8,9.8,43,0.00,,---,0.00,VWS V14.01,2013-11-03 08:31:00,
2013-11-03 01:36:00,66.0,43.5,29.91,SSE,158,9.8,9.8,44,0.00,,---,0.00,VWS V14.01,2013-11-03 08:36:00,
2013-11-03 01:41:00,66.0,43.5,29.91,SSE,158,9.8,9.8,44,0.00,,---,0.00,VWS V14.01,2013-11-03 08:41:00,
2013-11-03 01:46:00,65.8,42.7,29.88,SSE,158,9.8,9.8,43,0.00,,---,0.00,VWS V14.01,2013-11-03 08:46:00,
2013-11-03 01:51:00,65.8,42.7,29.88,SSE,158,9.8,9.8,43,0.00,,---,0.00,VWS V14.01,2013-11-03 08:51:00,
2013-11-03 01:56:00,65.8,42.7,29.88,SSE,158,9.8,9.8,43,0.00,,---,0.00,VWS V14.01,2013-11-03 08:56:00,
2013-11-03 02:02:00,65.8,42.7,29.88,SSE,158,9.8,9.8,43,0.00,,---,0.00,VWS V14.01,2013-11-03 09:02:00,
2013-11-03 02:07:00,65.8,42.7,29.88,SSE,158,9.8,9.8,43,0.00,,---,0.00,VWS V14.01,2013-11-03 09:07:00,
2013-11-03 02:12:00,65.8,42.7,29.88,SSE,158,9.8,9.8,43,0.00,,---,0.00,VWS V14.01,2013-11-03 09:12:00,
2013-11-03 02:17:00,65.7,42.6,29.88,SSE,158,9.8,9.8,43,0.00,,---,0.00,VWS V14.01,2013-11-03 09:17:00,
2013-11-03 02:22:00,65.7,42.6,29.88,SSE,158,9.8,9.8,43,0.00,,---,0.00,VWS V14.01,2013-11-03 09:22:00,
2013-11-03 02:27:00,65.7,42.6,29.88,SSE,158,9.8,9.8,43,0.00,,---,0.00,VWS V14.01,2013-11-03 09:27:00,
2013-11-03 02:32:00,65.7,42.6,29.88,SSE,158,9.8,9.8,43,0.00,,---,0.00,VWS V14.01,2013-11-03 09:32:00,
2013-11-03 02:37:00,65.7,42.0,29.88,SSE,158,9.8,9.8,42,0.00,,---,0.00,VWS V14.01,2013-11-03 09:37:00,
2013-11-03 02:43:00,65.7,42.6,29.88,SSE,158,9.8,9.8,43,0.00,,---,0.00,VWS V14.01,2013-11-03 09:43:00,
2013-11-03 02:48:00,65.5,41.8,29.85,SSE,158,9.8,9.8,42,0.00,,---,0.00,VWS V14.01,2013-11-03 09:48:00,
2013-11-03 02:53:00,65.5,41.8,29.85,SSE,158,9.8,9.8,42,0.00,,---,0.00,VWS V14.01,2013-11-03 09:53:00,
2013-11-03 02:58:00,65.3,41.6,29.85,SSE,158,9.8,9.8,42,0.00,,---,0.00,VWS V14.01,2013-11-03 09:58:00,
2013-11-03 03:03:00,65.1,42.1,29.85,SSE,158,9.8,9.8,43,0.00,,---,0.00,VWS V14.01,2013-11-03 10:03:00,
2013-11-03 03:08:00,64.9,41.3,29.85,SSE,158,9.8,9.8,42,0.00,,---,0.00,VWS V14.01,2013-11-03 10:08:00,
2013-11-03 03:13:00,64.9,41.3,29.85,SSE,158,9.8,9.8,42,0.00,,---,0.00,VWS V14.01,2013-11-03 10:13:00,
2013-11-03 03:18:00,64.9,41.9,29.85,SSE,158,9.8,9.8,43,0.00,,---,0.00,VWS V14.01,2013-11-03 10:18:00,
2013-11-03 03:23:00,64.9,41.3,29.85,SSE,158,9.8,9.8,42,0.00,,---,0.00,VWS V14.01,2013-11-03 10:23:00,
2013-11-03 03:28:00,64.9,41.3,29.85,SSE,158,9.8,9.8,42,0.00,,---,0.00,VWS V14.01,2013-11-03 10:28:00,
2013-11-03 03:33:00,64.8,40.5,29.85,SSE,158,9.8,9.8,41,0.00,,---,0.00,VWS V14.01,2013-11-03 10:33:00,
2013-11-03 03:38:00,64.8,41.2,29.85,SSE,158,9.8,9.8,42,0.00,,---,0.00,VWS V14.01,2013-11-03 10:38:00,
2013-11-03 03:44:00,64.8,41.2,29.85,SSE,158,9.8,9.8,42,0.00,,---,0.00,VWS V14.01,2013-11-03 10:44:00,
2013-11-03 03:49:00,64.6,40.4,29.85,SSE,158,9.8,9.8,41,0.00,,---,0.00,VWS V14.01,2013-11-03 10:49:00,
2013-11-03 03:54:00,64.2,40.0,29.85,SSE,158,9.8,9.8,41,0.00,,---,0.00,VWS V14.01,2013-11-03 10:54:00,
2013-11-03 03:59:00,63.9,41.0,29.85,SSE,158,9.8,9.8,43,0.00,,---,0.00,VWS V14.01,2013-11-03 10:59:00,
2013-11-03 04:04:00,63.5,39.4,29.82,SSE,158,9.8,9.8,41,0.00,,---,0.00,VWS V14.01,2013-11-03 11:04:00,
2013-11-03 04:09:00,63.1,39.7,29.82,SSE,158,9.8,9.8,42,0.00,,---,0.00,VWS V14.01,2013-11-03 11:09:00,
2013-11-03 04:14:00,62.8,40.6,29.82,SSE,158,9.8,9.8,44,0.00,,---,0.00,VWS V14.01,2013-11-03 11:14:00,
2013-11-03 04:19:00,62.6,40.4,29.82,SSE,158,9.8,9.8,44,0.00,,---,0.00,VWS V14.01,2013-11-03 11:19:00,
2013-11-03 04:25:00,62.2,40.7,29.82,SSE,158,9.8,9.8,45,0.00,,---,0.00,VWS V14.01,2013-11-03 11:25:00,
2013-11-03 04:30:00,62.1,39.9,29.82,SSE,158,9.8,9.8,44,0.00,,---,0.00,VWS V14.01,2013-11-03 11:30:00,
2013-11-03 04:35:00,61.7,39.6,29.82,SSE,158,9.8,9.8,44,0.00,,---,0.00,VWS V14.01,2013-11-03 11:35:00,
2013-11-03 04:40:00,61.5,40.0,29.82,SSE,158,9.8,9.8,45,0.00,,---,0.00,VWS V14.01,2013-11-03 11:40:00,
2013-11-03 04:45:00,61.3,39.8,29.82,SSE,158,9.8,9.8,45,0.00,,---,0.00,VWS V14.01,2013-11-03 11:45:00,
2013-11-03 04:50:00,61.0,40.6,29.82,SSE,158,9.8,9.8,47,0.00,,---,0.00,VWS V14.01,2013-11-03 11:50:00,
2013-11-03 04:55:00,60.6,40.3,29.82,SSE,158,9.8,9.8,47,0.00,,---,0.00,VWS V14.01,2013-11-03 11:55:00,
2013-11-03 05:00:00,60.4,40.7,29.82,SSE,158,9.8,9.8,48,0.00,,---,0.00,VWS V14.01,2013-11-03 12:00:00,
2013-11-03 05:05:00,60.3,40.0,29.82,SSE,158,9.8,9.8,47,0.00,,---,0.00,VWS V14.01,2013-11-03 12:05:00,
2013-11-03 05:10:00,60.3,42.6,29.82,SSE,158,9.8,9.8,52,0.00,,---,0.00,VWS V14.01,2013-11-03 12:10:00,
2013-11-03 05:15:00,59.9,41.2,29.82,SSE,158,9.8,9.8,50,0.00,,---,0.00,VWS V14.01,2013-11-03 12:15:00,
2013-11-03 05:21:00,59.7,41.1,29.82,SSE,158,9.8,9.8,50,0.00,,---,0.00,VWS V14.01,2013-11-03 12:21:00,
2013-11-03 05:26:00,59.5,40.9,29.82,SSE,158,9.8,9.8,50,0.00,,---,0.00,VWS V14.01,2013-11-03 12:26:00,
2013-11-03 05:31:00,59.4,41.2,29.85,SSE,158,9.8,9.8,51,0.00,,---,0.00,VWS V14.01,2013-11-03 12:31:00,
2013-11-03 05:36:00,59.2,42.1,29.85,SSE,158,9.8,9.8,53,0.00,,---,0.00,VWS V14.01,2013-11-03 12:36:00,
2013-11-03 05:41:00,59.0,44.3,29.85,SSE,158,9.8,9.8,58,0.00,,---,0.00,VWS V14.01,2013-11-03 12:41:00,
2013-11-03 05:46:00,58.8,41.2,29.82,SSE,158,9.8,9.8,52,0.00,,---,0.00,VWS V14.01,2013-11-03 12:46:00,
2013-11-03 05:51:00,58.8,41.2,29.82,SSE,158,9.8,9.8,52,0.00,,---,0.00,VWS V14.01,2013-11-03 12:51:00,
2013-11-03 05:56:00,58.3,42.7,29.82,SSE,158,9.8,9.8,56,0.00,,---,0.00,VWS V14.01,2013-11-03 12:56:00,
2013-11-03 06:01:00,58.1,41.6,29.85,SSE,158,9.8,9.8,54,0.00,,---,0.00,VWS V14.01,2013-11-03 13:01:00,
2013-11-03 06:07:00,58.1,45.6,29.85,SSE,158,9.8,9.8,63,0.00,,---,0.00,VWS V14.01,2013-11-03 13:07:00,
2013-11-03 06:12:00,58.1,43.4,29.85,SSE,158,9.8,9.8,58,0.00,,---,0.00,VWS V14.01,2013-11-03 13:12:00,
2013-11-03 06:17:00,57.9,41.4,29.85,SSE,158,9.8,9.8,54,0.00,,---,0.00,VWS V14.01,2013-11-03 13:17:00,
2013-11-03 06:22:00,57.9,43.2,29.85,SSE,158,9.8,9.8,58,0.00,,---,0.00,VWS V14.01,2013-11-03 13:22:00,
2013-11-03 06:27:00,57.7,43.1,29.85,SSE,158,9.8,9.8,58,0.00,,---,0.00,VWS V14.01,2013-11-03 13:27:00,
2013-11-03 06:32:00,57.6,42.9,29.85,SSE,158,9.8,9.8,58,0.00,,---,0.00,VWS V14.01,2013-11-03 13:32:00,
2013-11-03 06:37:00,57.6,43.8,29.85,SSE,158,9.8,9.8,60,0.00,,---,0.00,VWS V14.01,2013-11-03 13:37:00,
2013-11-03 06:42:00,57.4,43.2,29.85,SSE,158,9.8,9.8,59,0.00,,---,0.00,VWS V14.01,2013-11-03 13:42:00,
2013-11-03 06:47:00,57.0,45.0,29.85,SSE,158,9.8,9.8,64,0.00,,---,0.00,VWS V14.01,2013-11-03 13:47:00,
2013-11-03 06:52:00,57.0,44.6,29.85,SSE,158,9.8,9.8,63,0.00,,---,0.00,VWS V14.01,2013-11-03 13:52:00,
2013-11-03 06:57:00,57.0,44.1,29.85,SSE,158,9.8,9.8,62,0.00,,---,0.00,VWS V14.01,2013-11-03 13:57:00,
2013-11-03 07:03:00,57.0,44.6,29.85,SSE,158,9.8,9.8,63,0.00,,---,0.00,VWS V14.01,2013-11-03 14:03:00,
2013-11-03 07:08:00,57.0,43.3,29.85,SSE,158,9.8,9.8,60,0.00,,---,0.00,VWS V14.01,2013-11-03 14:08:00,
2013-11-03 07:13:00,56.8,44.0,29.85,SSE,158,9.8,9.8,62,0.00,,---,0.00,VWS V14.01,2013-11-03 14:13:00,
2013-11-03 07:18:00,56.8,42.7,29.85,SSE,158,9.8,9.8,59,0.00,,---,0.00,VWS V14.01,2013-11-03 14:18:00,
2013-11-03 07:23:00,57.2,46.4,29.85,SSE,158,9.8,9.8,67,0.00,,---,0.00,VWS V14.01,2013-11-03 14:23:00,
2013-11-03 07:28:00,57.9,45.0,29.85,SSE,158,9.8,9.8,62,0.00,,---,0.00,VWS V14.01,2013-11-03 14:28:00,
2013-11-03 07:33:00,58.5,45.1,29.85,SSE,158,9.8,9.8,61,0.00,,---,0.00,VWS V14.01,2013-11-03 14:33:00,
2013-11-03 07:38:00,59.2,44.9,29.85,SSE,158,9.8,9.8,59,0.00,,---,0.00,VWS V14.01,2013-11-03 14:38:00,
2013-11-03 07:43:00,60.1,45.7,29.85,SSE,158,9.8,9.8,59,0.00,,---,0.00,VWS V14.01,2013-11-03 14:43:00,
2013-11-03 07:48:00,60.6,44.8,29.85,SSE,158,9.8,9.8,56,0.00,,---,0.00,VWS V14.01,2013-11-03 14:48:00,
2013-11-03 07:53:00,61.2,44.9,29.85,SSE,158,9.8,9.8,55,0.00,,---,0.00,VWS V14.01,2013-11-03 14:53:00,
2013-11-03 07:58:00,61.9,45.5,29.85,SSE,158,9.8,9.8,55,0.00,,---,0.00,VWS V14.01,2013-11-03 14:58:00,
2013-11-03 08:04:00,62.2,45.4,29.85,SSE,158,9.8,9.8,54,0.00,,---,0.00,VWS V14.01,2013-11-03 15:04:00,
2013-11-03 08:09:00,63.1,45.8,29.85,SSE,158,9.8,9.8,53,0.00,,---,0.00,VWS V14.01,2013-11-03 15:09:00,
2013-11-03 08:14:00,63.5,46.1,29.85,SSE,158,9.8,9.8,53,0.00,,---,0.00,VWS V14.01,2013-11-03 15:14:00,
2013-11-03 08:19:00,64.2,46.2,29.85,SSE,158,9.8,9.8,52,0.00,,---,0.00,VWS V14.01,2013-11-03 15:19:00,
2013-11-03 08:24:00,64.8,46.2,29.85,SSE,158,9.8,9.8,51,0.00,,---,0.00,VWS V14.01,2013-11-03 15:24:00,
2013-11-03 08:29:00,65.5,46.4,29.85,SSE,158,9.8,9.8,50,0.00,,---,0.00,VWS V14.01,2013-11-03 15:29:00,
2013-11-03 08:34:00,66.0,46.9,29.85,SSE,158,9.8,9.8,50,0.00,,---,0.00,VWS V14.01,2013-11-03 15:34:00,
2013-11-03 08:39:00,66.4,46.1,29.85,SSE,158,9.8,9.8,48,0.00,,---,0.00,VWS V14.01,2013-11-03 15:39:00,
2013-11-03 08:44:00,66.7,45.9,29.85,SSE,158,9.8,9.8,47,0.00,,---,0.00,VWS V14.01,2013-11-03 15:44:00,
2013-11-03 08:50:00,67.1,46.2,29.85,SSE,158,9.8,9.8,47,0.00,,---,0.00,VWS V14.01,2013-11-03 15:50:00,
2013-11-03 08:55:00,67.5,46.0,29.85,SSE,158,9.8,9.8,46,0.00,,---,0.00,VWS V14.01,2013-11-03 15:55:00,
2013-11-03 09:00:00,68.2,46.0,29.85,SSE,158,9.8,9.8,45,0.00,,---,0.00,VWS V14.01,2013-11-03 16:00:00,
2013-11-03 09:05:00,68.7,46.5,29.85,SSE,158,9.8,9.8,45,0.00,,---,0.00,VWS V14.01,2013-11-03 16:05:00,
2013-11-03 09:10:00,69.3,46.4,29.85,SSE,158,9.8,9.8,44,0.00,,---,0.00,VWS V14.01,2013-11-03 16:10:00,
2013-11-03 09:15:00,70.0,47.1,29.85,SSE,158,9.8,9.8,44,0.00,,---,0.00,VWS V14.01,2013-11-03 16:15:00,
2013-11-03 09:20:00,70.7,47.7,29.85,SSE,158,9.8,9.8,44,0.00,,---,0.00,VWS V14.01,2013-11-03 16:20:00,
2013-11-03 09:25:00,71.2,47.6,29.85,SSE,158,9.8,9.8,43,0.00,,---,0.00,VWS V14.01,2013-11-03 16:25:00,
2013-11-03 09:30:00,72.0,47.0,29.85,SSE,158,9.8,9.8,41,0.00,,---,0.00,VWS V14.01,2013-11-03 16:30:00,
2013-11-03 09:35:00,72.3,47.3,29.85,SSE,158,9.8,9.8,41,0.00,,---,0.00,VWS V14.01,2013-11-03 16:35:00,
2013-11-03 09:40:00,72.9,46.5,29.85,SW,225,3.6,3.6,39,0.00,,---,0.00,VWS V14.01,2013-11-03 16:40:00,
2013-11-03 09:45:00,73.4,45.6,29.85,SSE,158,3.1,3.1,37,0.00,,---,0.00,VWS V14.01,2013-11-03 16:45:00,
2013-11-03 09:50:00,73.6,45.7,29.85,SSE,158,1.3,3.6,37,0.00,,---,0.00,VWS V14.01,2013-11-03 16:50:00,
2013-11-03 09:55:00,74.1,45.5,29.85,SSW,202,4.3,4.3,36,0.00,,---,0.00,VWS V14.01,2013-11-03 16:55:00,
2013-11-03 10:00:00,74.5,45.8,29.88,South,180,3.4,4.3,36,0.00,,---,0.00,VWS V14.01,2013-11-03 17:00:00,
2013-11-03 10:05:00,75.0,45.5,29.88,SSW,202,3.8,3.8,35,0.00,,---,0.00,VWS V14.01,2013-11-03 17:05:00,
2013-11-03 10:10:00,75.2,44.9,29.88,WSW,248,2.0,2.5,34,0.00,,---,0.00,VWS V14.01,2013-11-03 17:10:00,
2013-11-03 10:15:00,75.2,44.9,29.88,SW,225,2.5,3.1,34,0.00,,---,0.00,VWS V14.01,2013-11-03 17:15:00,
2013-11-03 10:20:00,74.7,43.7,29.88,SW,225,2.7,3.8,33,0.00,,---,0.00,VWS V14.01,2013-11-03 17:20:00,
2013-11-03 10:25:00,75.2,44.2,29.88,SW,225,4.3,4.3,33,0.00,,---,0.00,VWS V14.01,2013-11-03 17:25:00,
2013-11-03 10:30:00,75.6,44.5,29.88,SE,135,2.7,3.1,33,0.00,,---,0.00,VWS V14.01,2013-11-03 17:30:00,
2013-11-03 10:35:00,75.6,43.7,29.88,SSW,202,2.0,2.0,32,0.00,,---,0.00,VWS V14.01,2013-11-03 17:35:00,
2013-11-03 10:40:00,75.9,44.0,29.88,SW,225,4.0,4.0,32,0.00,,---,0.00,VWS V14.01,2013-11-03 17:40:00,
2013-11-03 10:45:00,76.3,44.3,29.88,South,180,1.3,3.1,32,0.00,,---,0.00,VWS V14.01,2013-11-03 17:45:00,
2013-11-03 10:50:00,76.8,44.8,29.88,SSE,158,3.4,3.4,32,0.00,,---,0.00,VWS V14.01,2013-11-03 17:50:00,
2013-11-03 10:55:00,77.2,44.2,29.88,SSE,158,4.9,4.9,31,0.00,,---,0.00,VWS V14.01,2013-11-03 17:55:00,
2013-11-03 11:00:00,77.5,44.5,29.85,SE,135,5.4,5.4,31,0.00,,---,0.00,VWS V14.01,2013-11-03 18:00:00,
2013-11-03 11:05:00,78.1,45.0,29.85,SE,135,3.4,3.4,31,0.00,,---,0.00,VWS V14.01,2013-11-03 18:05:00,
2013-11-03 11:10:00,78.3,45.2,29.85,SW,225,2.9,4.0,31,0.00,,---,0.00,VWS V14.01,2013-11-03 18:10:00,
2013-11-03 11:15:00,78.4,44.5,29.85,SSE,158,2.7,2.7,30,0.00,,---,0.00,VWS V14.01,2013-11-03 18:15:00,
2013-11-03 11:21:00,78.8,44.8,29.85,South,180,1.6,1.6,30,0.00,,---,0.00,VWS V14.01,2013-11-03 18:21:00,
2013-11-03 11:26:00,79.2,45.1,29.85,South,180,3.4,3.4,30,0.00,,---,0.00,VWS V14.01,2013-11-03 18:26:00,
2013-11-03 11:31:00,79.5,45.4,29.85,WSW,248,2.9,2.9,30,0.00,,---,0.00,VWS V14.01,2013-11-03 18:31:00,
2013-11-03 11:36:00,79.7,45.6,29.85,SSE,158,2.0,2.7,30,0.00,,---,0.00,VWS V14.01,2013-11-03 18:36:00,
2013-11-03 11:41:00,79.7,44.7,29.85,SSW,202,1.6,2.5,29,0.00,,---,0.00,VWS V14.01,2013-11-03 18:41:00,
2013-11-03 11:46:00,80.1,45.0,29.85,ESE,112,3.4,3.4,29,0.00,,---,0.00,VWS V14.01,2013-11-03 18:46:00,
2013-11-03 11:51:00,80.4,44.4,29.85,SE,135,2.0,2.0,28,0.00,,---,0.00,VWS V14.01,2013-11-03 18:51:00,
2013-11-03 11:56:00,80.4,44.4,29.85,WSW,248,4.0,4.9,28,0.00,,---,0.00,VWS V14.01,2013-11-03 18:56:00,
2013-11-03 12:01:00,80.6,43.6,29.85,SSW,202,4.0,4.0,27,0.00,,---,0.00,VWS V14.01,2013-11-03 19:01:00,
2013-11-03 12:06:00,80.8,42.7,29.85,SSW,202,3.4,3.4,26,0.00,,---,0.00,VWS V14.01,2013-11-03 19:06:00,
2013-11-03 12:11:00,80.8,43.7,29.85,ESE,112,3.4,3.8,27,0.00,,---,0.00,VWS V14.01,2013-11-03 19:11:00,
2013-11-03 12:16:00,81.3,43.2,29.82,WSW,248,2.9,2.9,26,0.00,,---,0.00,VWS V14.01,2013-11-03 19:16:00,
2013-11-03 12:21:00,81.0,41.9,29.82,SSW,202,2.2,2.7,25,0.00,,---,0.00,VWS V14.01,2013-11-03 19:21:00,
2013-11-03 12:26:00,80.6,42.6,29.82,West,270,1.6,2.7,26,0.00,,---,0.00,VWS V14.01,2013-11-03 19:26:00,
2013-11-03 12:31:00,81.0,42.9,29.82,SW,225,2.0,5.8,26,0.00,,---,0.00,VWS V14.01,2013-11-03 19:31:00,
2013-11-03 12:36:00,81.1,43.0,29.82,SW,225,3.4,3.4,26,0.00,,---,0.00,VWS V14.01,2013-11-03 19:36:00,
2013-11-03 12:41:00,81.3,43.2,29.82,West,270,2.7,2.7,26,0.00,,---,0.00,VWS V14.01,2013-11-03 19:41:00,
2013-11-03 12:47:00,80.4,42.4,29.79,SSW,202,1.1,1.1,26,0.00,,---,0.00,VWS V14.01,2013-11-03 19:47:00,
2013-11-03 12:51:00,80.4,42.4,29.79,SSE,158,3.6,3.6,26,0.00,,---,0.00,VWS V14.01,2013-11-03 19:51:00,
2013-11-03 12:57:00,80.2,42.3,29.79,NW,315,2.9,2.9,26,0.00,,---,0.00,VWS V14.01,2013-11-03 19:57:00,
2013-11-03 13:02:00,80.4,42.4,29.79,SW,225,6.0,6.0,26,0.00,,---,0.00,VWS V14.01,2013-11-03 20:02:00,
2013-11-03 13:07:00,79.9,42.0,29.79,SW,225,2.9,2.9,26,0.00,,---,0.00,VWS V14.01,2013-11-03 20:07:00,
2013-11-03 13:12:00,80.2,42.3,29.79,ESE,112,4.0,4.0,26,0.00,,---,0.00,VWS V14.01,2013-11-03 20:12:00,
2013-11-03 13:17:00,80.4,42.4,29.79,ESE,112,3.4,3.4,26,0.00,,---,0.00,VWS V14.01,2013-11-03 20:17:00,
2013-11-03 13:22:00,79.5,41.7,29.79,WSW,248,7.4,7.4,26,0.00,,---,0.00,VWS V14.01,2013-11-03 20:22:00,
2013-11-03 13:27:00,78.6,40.9,29.79,NW,315,0.0,0.9,26,0.00,,---,0.00,VWS V14.01,2013-11-03 20:27:00,
2013-11-03 13:32:00,78.8,41.0,29.79,SE,135,0.0,0.0,26,0.00,,---,0.00,VWS V14.01,2013-11-03 20:32:00,
2013-11-03 13:37:00,78.8,42.0,29.79,WNW,292,2.5,2.5,27,0.00,,---,0.00,VWS V14.01,2013-11-03 20:37:00,
2013-11-03 13:42:00,79.5,42.6,29.79,WNW,292,2.5,2.5,27,0.00,,---,0.00,VWS V14.01,2013-11-03 20:42:00,
2013-11-03 13:47:00,80.4,43.4,29.79,WNW,292,2.5,2.5,27,0.00,,---,0.00,VWS V14.01,2013-11-03 20:47:00,
2013-11-03 13:52:00,80.6,42.6,29.79,WNW,292,2.5,2.5,26,0.00,,---,0.00,VWS V14.01,2013-11-03 20:52:00,
2013-11-03 13:57:00,81.1,41.0,29.79,WNW,292,2.5,2.5,24,0.00,,---,0.00,VWS V14.01,2013-11-03 20:57:00,
2013-11-03 14:02:00,81.3,41.1,29.79,WNW,292,2.5,2.5,24,0.00,,---,0.00,VWS V14.01,2013-11-03 21:02:00,
2013-11-03 14:07:00,81.3,41.1,29.79,WNW,292,2.5,2.5,24,0.00,,---,0.00,VWS V14.01,2013-11-03 21:07:00,
2013-11-03 14:12:00,81.7,41.4,29.79,WNW,292,2.5,2.5,24,0.00,,---,0.00,VWS V14.01,2013-11-03 21:12:00,
2013-11-03 14:18:00,82.0,41.7,29.79,WNW,292,2.5,2.5,24,0.00,,---,0.00,VWS V14.01,2013-11-03 21:18:00,
2013-11-03 14:23:00,81.5,41.3,29.79,WNW,292,2.5,2.5,24,0.00,,---,0.00,VWS V14.01,2013-11-03 21:23:00,
2013-11-03 14:28:00,80.8,39.6,29.79,WNW,292,2.5,2.5,23,0.00,,---,0.00,VWS V14.01,2013-11-03 21:28:00,
2013-11-03 14:33:00,80.6,39.4,29.76,WNW,292,2.5,2.5,23,0.00,,---,0.00,VWS V14.01,2013-11-03 21:33:00,
2013-11-03 14:38:00,81.5,40.2,29.76,WNW,292,2.5,2.5,23,0.00,,---,0.00,VWS V14.01,2013-11-03 21:38:00,
2013-11-03 14:43:00,81.9,40.5,29.76,WNW,292,2.5,2.5,23,0.00,,---,0.00,VWS V14.01,2013-11-03 21:43:00,
2013-11-03 14:48:00,80.8,39.6,29.76,WNW,292,2.5,2.5,23,0.00,,---,0.00,VWS V14.01,2013-11-03 21:48:00,
2013-11-03 14:53:00,80.6,39.4,29.76,WSW,248,6.5,6.5,23,0.00,,---,0.00,VWS V14.01,2013-11-03 21:53:00,
2013-11-03 14:58:00,81.0,39.7,29.76,WSW,248,6.5,6.5,23,0.00,,---,0.00,VWS V14.01,2013-11-03 21:58:00,
2013-11-03 15:03:00,81.3,40.0,29.76,WSW,248,6.5,6.5,23,0.00,,---,0.00,VWS V14.01,2013-11-03 22:03:00,
2013-11-03 15:09:00,81.9,40.5,29.76,WSW,248,6.5,6.5,23,0.00,,---,0.00,VWS V14.01,2013-11-03 22:09:00,
2013-11-03 15:14:00,82.0,40.6,29.76,WSW,248,6.5,6.5,23,0.00,,---,0.00,VWS V14.01,2013-11-03 22:14:00,
2013-11-03 15:19:00,82.2,39.6,29.76,WSW,248,6.5,6.5,22,0.00,,---,0.00,VWS V14.01,2013-11-03 22:19:00,
2013-11-03 15:24:00,82.2,39.6,29.76,WSW,248,6.5,6.5,22,0.00,,---,0.00,VWS V14.01,2013-11-03 22:24:00,
2013-11-03 15:29:00,82.2,39.6,29.76,WSW,248,6.5,6.5,22,0.00,,---,0.00,VWS V14.01,2013-11-03 22:29:00,
2013-11-03 15:34:00,81.9,39.3,29.76,WSW,248,6.5,6.5,22,0.00,,---,0.00,VWS V14.01,2013-11-03 22:34:00,
2013-11-03 15:39:00,81.7,39.2,29.76,WSW,248,6.5,6.5,22,0.00,,---,0.00,VWS V14.01,2013-11-03 22:39:00,
2013-11-03 15:44:00,81.9,39.3,29.76,WSW,248,6.5,6.5,22,0.00,,---,0.00,VWS V14.01,2013-11-03 22:44:00,
2013-11-03 15:49:00,81.7,39.2,29.76,WSW,248,6.5,6.5,22,0.00,,---,0.00,VWS V14.01,2013-11-03 22:49:00,
2013-11-03 15:54:00,81.3,38.9,29.76,WSW,248,6.5,6.5,22,0.00,,---,0.00,VWS V14.01,2013-11-03 22:54:00,
2013-11-03 16:00:00,81.0,38.6,29.76,WSW,248,6.5,6.5,22,0.00,,---,0.00,VWS V14.01,2013-11-03 23:00:00,
2013-11-03 16:05:00,80.4,39.3,29.76,WSW,248,6.5,6.5,23,0.00,,---,0.00,VWS V14.01,2013-11-03 23:05:00,
2013-11-03 16:10:00,80.2,39.1,29.76,WSW,248,6.5,6.5,23,0.00,,---,0.00,VWS V14.01,2013-11-03 23:10:00,
2013-11-03 16:15:00,80.1,39.0,29.74,WSW,248,6.5,6.5,23,0.00,,---,0.00,VWS V14.01,2013-11-03 23:15:00,
2013-11-03 16:20:00,79.9,38.8,29.74,WSW,248,6.5,6.5,23,0.00,,---,0.00,VWS V14.01,2013-11-03 23:20:00,
2013-11-03 16:25:00,79.7,38.7,29.74,WSW,248,6.5,6.5,23,0.00,,---,0.00,VWS V14.01,2013-11-03 23:25:00,
2013-11-03 16:30:00,79.5,38.5,29.76,WSW,248,6.5,6.5,23,0.00,,---,0.00,VWS V14.01,2013-11-03 23:30:00,
2013-11-03 16:35:00,79.3,38.4,29.76,WSW,248,6.5,6.5,23,0.00,,---,0.00,VWS V14.01,2013-11-03 23:35:00,
2013-11-03 16:40:00,79.0,38.1,29.76,WSW,248,6.5,6.5,23,0.00,,---,0.00,VWS V14.01,2013-11-03 23:40:00,
2013-11-03 16:45:00,78.6,37.8,29.74,WSW,248,6.5,6.5,23,0.00,,---,0.00,VWS V14.01,2013-11-03 23:45:00,
2013-11-03 16:50:00,77.9,37.2,29.74,WSW,248,6.5,6.5,23,0.00,,---,0.00,VWS V14.01,2013-11-03 23:50:00,
2013-11-03 16:55:00,77.4,36.7,29.74,WSW,248,6.5,6.5,23,0.00,,---,0.00,VWS V14.01,2013-11-03 23:55:00,
2013-11-03 17:00:00,77.0,36.4,29.76,WSW,248,6.5,6.5,23,0.00,,---,0.00,VWS V14.01,2013-11-04 00:00:00,
2013-11-03 17:06:00,76.3,35.8,29.76,WSW,248,6.5,6.5,23,0.00,,---,0.00,VWS V14.01,2013-11-04 00:06:00,
2013-11-03 17:11:00,75.7,35.3,29.76,WSW,248,6.5,6.5,23,0.00,,---,0.00,VWS V14.01,2013-11-04 00:11:00,
2013-11-03 17:16:00,75.4,35.0,29.76,WSW,248,6.5,6.5,23,0.00,,---,0.00,VWS V14.01,2013-11-04 00:16:00,
2013-11-03 17:21:00,74.8,35.7,29.76,WSW,248,6.5,6.5,24,0.00,,---,0.00,VWS V14.01,2013-11-04 00:21:00,
2013-11-03 17:26:00,74.5,35.4,29.76,WSW,248,6.5,6.5,24,0.00,,---,0.00,VWS V14.01,2013-11-04 00:26:00,
2013-11-03 17:31:00,74.1,35.1,29.76,WSW,248,6.5,6.5,24,0.00,,---,0.00,VWS V14.01,2013-11-04 00:31:00,
2013-11-03 17:36:00,73.6,34.6,29.76,WSW,248,6.5,6.5,24,0.00,,---,0.00,VWS V14.01,2013-11-04 00:36:00,
2013-11-03 17:41:00,73.2,34.3,29.76,WSW,248,6.5,6.5,24,0.00,,---,0.00,VWS V14.01,2013-11-04 00:41:00,
2013-11-03 17:46:00,72.9,34.0,29.76,WSW,248,6.5,6.5,24,0.00,,---,0.00,VWS V14.01,2013-11-04 00:46:00,
2013-11-03 17:51:00,72.7,33.8,29.76,WSW,248,6.5,6.5,24,0.00,,---,0.00,VWS V14.01,2013-11-04 00:51:00,
2013-11-03 17:56:00,72.3,33.5,29.76,SW,225,2.5,2.5,24,0.00,,---,0.00,VWS V14.01,2013-11-04 00:56:00,
2013-11-03 18:01:00,72.0,33.2,29.76,SW,225,2.5,2.5,24,0.00,,---,0.00,VWS V14.01,2013-11-04 01:01:00,
2013-11-03 18:06:00,71.6,32.9,29.76,West,270,3.4,3.4,24,0.00,,---,0.00,VWS V14.01,2013-11-04 01:06:00,
2013-11-03 18:11:00,71.2,33.6,29.76,WNW,292,1.6,1.6,25,0.00,,---,0.00,VWS V14.01,2013-11-04 01:11:00,
2013-11-03 18:17:00,70.9,33.3,29.76,West,270,2.9,2.9,25,0.00,,---,0.00,VWS V14.01,2013-11-04 01:17:00,
2013-11-03 18:22:00,70.7,33.2,29.76,WSW,248,3.4,3.4,25,0.00,,---,0.00,VWS V14.01,2013-11-04 01:22:00,
2013-11-03 18:27:00,70.3,32.9,29.76,WNW,292,1.6,2.0,25,0.00,,---,0.00,VWS V14.01,2013-11-04 01:27:00,
2013-11-03 18:32:00,70.2,32.7,29.76,WSW,248,2.0,2.0,25,0.00,,---,0.00,VWS V14.01,2013-11-04 01:32:00,
2013-11-03 18:37:00,69.8,32.4,29.76,SW,225,3.4,3.4,25,0.00,,---,0.00,VWS V14.01,2013-11-04 01:37:00,
2013-11-03 18:42:00,69.6,33.2,29.76,WSW,248,2.7,3.4,26,0.00,,---,0.00,VWS V14.01,2013-11-04 01:42:00,
2013-11-03 18:47:00,69.3,32.9,29.76,West,270,2.7,2.7,26,0.00,,---,0.00,VWS V14.01,2013-11-04 01:47:00,
2013-11-03 18:52:00,69.1,32.8,29.76,West,270,0.9,0.9,26,0.00,,---,0.00,VWS V14.01,2013-11-04 01:52:00,
2013-11-03 18:57:00,68.7,32.5,29.76,WSW,248,1.3,1.3,26,0.00,,---,0.00,VWS V14.01,2013-11-04 01:57:00,
2013-11-03 19:02:00,68.4,32.2,29.76,West,270,2.5,2.5,26,0.00,,---,0.00,VWS V14.01,2013-11-04 02:02:00,
2013-11-03 19:07:00,68.0,31.9,29.76,WSW,248,2.5,2.5,26,0.00,,---,0.00,VWS V14.01,2013-11-04 02:07:00,
2013-11-03 19:12:00,67.6,31.6,29.76,West,270,0.0,0.0,26,0.00,,---,0.00,VWS V14.01,2013-11-04 02:12:00,
2013-11-03 19:17:00,67.1,31.1,29.76,West,270,0.0,0.0,26,0.00,,---,0.00,VWS V14.01,2013-11-04 02:17:00,
2013-11-03 19:22:00,66.7,31.7,29.76,West,270,0.0,0.0,27,0.00,,---,0.00,VWS V14.01,2013-11-04 02:22:00,
2013-11-03 19:28:00,66.4,31.4,29.76,West,270,0.0,0.0,27,0.00,,---,0.00,VWS V14.01,2013-11-04 02:28:00,
2013-11-03 19:33:00,66.2,31.3,29.76,WSW,248,0.0,0.0,27,0.00,,---,0.00,VWS V14.01,2013-11-04 02:33:00,
2013-11-03 19:38:00,66.0,31.1,29.76,WSW,248,0.0,0.0,27,0.00,,---,0.00,VWS V14.01,2013-11-04 02:38:00,
2013-11-03 19:43:00,65.7,30.8,29.76,West,270,0.0,0.0,27,0.00,,---,0.00,VWS V14.01,2013-11-04 02:43:00,
2013-11-03 19:48:00,65.3,30.5,29.79,West,270,0.0,0.0,27,0.00,,---,0.00,VWS V14.01,2013-11-04 02:48:00,
2013-11-03 19:53:00,64.9,31.1,29.79,West,270,0.0,0.0,28,0.00,,---,0.00,VWS V14.01,2013-11-04 02:53:00,
2013-11-03 19:58:00,64.6,30.8,29.79,West,270,0.0,0.0,28,0.00,,---,0.00,VWS V14.01,2013-11-04 02:58:00,
2013-11-03 20:03:00,64.2,30.5,29.79,West,270,0.0,0.0,28,0.00,,---,0.00,VWS V14.01,2013-11-04 03:03:00,
2013-11-03 20:08:00,64.0,31.2,29.79,West,270,0.0,0.0,29,0.00,,---,0.00,VWS V14.01,2013-11-04 03:08:00,
2013-11-03 20:13:00,63.7,30.9,29.79,West,270,0.0,0.0,29,0.00,,---,0.00,VWS V14.01,2013-11-04 03:13:00,
2013-11-03 20:19:00,63.3,31.4,29.79,SE,135,0.0,0.0,30,0.00,,---,0.00,VWS V14.01,2013-11-04 03:19:00,
2013-11-03 20:24:00,63.1,31.2,29.79,SE,135,0.0,0.0,30,0.00,,---,0.00,VWS V14.01,2013-11-04 03:24:00,
2013-11-03 20:29:00,63.1,31.2,29.79,SSE,158,0.0,0.0,30,0.00,,---,0.00,VWS V14.01,2013-11-04 03:29:00,
2013-11-03 20:34:00,63.3,32.2,29.79,SSE,158,0.0,0.0,31,0.00,,---,0.00,VWS V14.01,2013-11-04 03:34:00,
2013-11-03 20:39:00,63.0,31.9,29.79,SW,225,0.9,0.9,31,0.00,,---,0.00,VWS V14.01,2013-11-04 03:39:00,
2013-11-03 20:44:00,62.8,31.7,29.79,SW,225,0.9,0.9,31,0.00,,---,0.00,VWS V14.01,2013-11-04 03:44:00,
2013-11-03 20:49:00,62.6,32.3,29.79,SW,225,0.9,0.9,32,0.00,,---,0.00,VWS V14.01,2013-11-04 03:49:00,
2013-11-03 20:54:00,62.4,32.2,29.79,SW,225,0.9,0.9,32,0.00,,---,0.00,VWS V14.01,2013-11-04 03:54:00,
2013-11-03 21:00:00,62.1,32.6,29.79,SW,225,0.9,0.9,33,0.00,,---,0.00,VWS V14.01,2013-11-04 04:00:00,
2013-11-03 21:05:00,61.9,32.5,29.79,SW,225,0.9,0.9,33,0.00,,---,0.00,VWS V14.01,2013-11-04 04:05:00,
2013-11-03 21:10:00,61.7,32.3,29.79,SW,225,0.9,0.9,33,0.00,,---,0.00,VWS V14.01,2013-11-04 04:10:00,
2013-11-03 21:15:00,61.5,32.2,29.79,SW,225,0.9,0.9,33,0.00,,---,0.00,VWS V14.01,2013-11-04 04:15:00,
2013-11-03 21:20:00,61.3,32.8,29.79,SW,225,0.9,0.9,34,0.00,,---,0.00,VWS V14.01,2013-11-04 04:20:00,
2013-11-03 21:25:00,61.2,32.6,29.79,SW,225,0.9,0.9,34,0.00,,---,0.00,VWS V14.01,2013-11-04 04:25:00,
2013-11-03 21:30:00,61.0,32.4,29.79,SW,225,0.9,0.9,34,0.00,,---,0.00,VWS V14.01,2013-11-04 04:30:00,
2013-11-03 21:35:00,60.8,32.3,29.79,SW,225,0.9,0.9,34,0.00,,---,0.00,VWS V14.01,2013-11-04 04:35:00,
2013-11-03 21:40:00,60.6,32.1,29.79,SW,225,0.9,0.9,34,0.00,,---,0.00,VWS V14.01,2013-11-04 04:40:00,
2013-11-03 21:46:00,60.6,32.8,29.79,SW,225,0.9,0.9,35,0.00,,---,0.00,VWS V14.01,2013-11-04 04:46:00,
2013-11-03 21:51:00,60.4,32.7,29.79,SW,225,0.9,0.9,35,0.00,,---,0.00,VWS V14.01,2013-11-04 04:51:00,
2013-11-03 21:56:00,60.3,32.5,29.79,SW,225,0.9,0.9,35,0.00,,---,0.00,VWS V14.01,2013-11-04 04:56:00,
2013-11-03 22:01:00,60.3,32.5,29.79,SW,225,0.9,0.9,35,0.00,,---,0.00,VWS V14.01,2013-11-04 05:01:00,
2013-11-03 22:02:00,60.3,32.5,29.79,SW,225,0.9,0.9,35,0.00,,---,0.00,VWS V14.01,2013-11-04 05:02:00,
2013-11-03 22:07:00,60.1,32.4,29.79,SW,225,0.9,0.9,35,0.00,,---,0.00,VWS V14.01,2013-11-04 05:07:00,
2013-11-03 22:12:00,59.7,32.0,29.79,SW,225,0.9,0.9,35,0.00,,---,0.00,VWS V14.01,2013-11-04 05:12:00,
2013-11-03 22:18:00,59.7,32.0,29.79,SW,225,0.9,0.9,35,0.00,,---,0.00,VWS V14.01,2013-11-04 05:18:00,
2013-11-03 22:23:00,59.4,32.4,29.79,SW,225,0.9,0.9,36,0.00,,---,0.00,VWS V14.01,2013-11-04 05:23:00,
2013-11-03 22:28:00,59.5,33.3,29.79,SW,225,0.9,0.9,37,0.00,,---,0.00,VWS V14.01,2013-11-04 05:28:00,
2013-11-03 22:33:00,59.4,33.1,29.79,SW,225,0.9,0.9,37,0.00,,---,0.00,VWS V14.01,2013-11-04 05:33:00,
2013-11-03 22:38:00,59.2,33.0,29.79,SW,225,0.9,0.9,37,0.00,,---,0.00,VWS V14.01,2013-11-04 05:38:00,
2013-11-03 22:43:00,59.0,32.8,29.79,SW,225,0.9,0.9,37,0.00,,---,0.00,VWS V14.01,2013-11-04 05:43:00,
2013-11-03 22:48:00,58.6,32.5,29.79,SW,225,0.9,0.9,37,0.00,,---,0.00,VWS V14.01,2013-11-04 05:48:00,
2013-11-03 22:53:00,58.6,33.1,29.79,SW,225,0.9,0.9,38,0.00,,---,0.00,VWS V14.01,2013-11-04 05:53:00,
2013-11-03 22:58:00,58.5,32.3,29.79,SW,225,0.9,0.9,37,0.00,,---,0.00,VWS V14.01,2013-11-04 05:58:00,
2013-11-03 23:03:00,58.3,32.8,29.79,SW,225,0.9,0.9,38,0.00,,---,0.00,VWS V14.01,2013-11-04 06:03:00,
2013-11-03 23:08:00,57.9,32.5,29.79,SW,225,0.9,0.9,38,0.00,,---,0.00,VWS V14.01,2013-11-04 06:08:00,
2013-11-03 23:13:00,57.7,32.3,29.79,SW,225,0.9,0.9,38,0.00,,---,0.00,VWS V14.01,2013-11-04 06:13:00,
2013-11-03 23:19:00,57.6,32.2,29.79,SW,225,0.9,0.9,38,0.00,,---,0.00,VWS V14.01,2013-11-04 06:19:00,
2013-11-03 23:24:00,57.4,32.0,29.79,SW,225,0.9,0.9,38,0.00,,---,0.00,VWS V14.01,2013-11-04 06:24:00,
2013-11-03 23:29:00,57.4,32.7,29.79,SW,225,0.9,0.9,39,0.00,,---,0.00,VWS V14.01,2013-11-04 06:29:00,
2013-11-03 23:34:00,57.2,31.8,29.79,SW,225,0.9,0.9,38,0.00,,---,0.00,VWS V14.01,2013-11-04 06:34:00,
2013-11-03 23:39:00,57.2,32.5,29.79,SW,225,0.9,0.9,39,0.00,,---,0.00,VWS V14.01,2013-11-04 06:39:00,
2013-11-03 23:44:00,57.6,32.8,29.79,SW,225,0.9,0.9,39,0.00,,---,0.00,VWS V14.01,2013-11-04 06:44:00,
2013-11-03 23:49:00,57.7,33.0,29.79,SW,225,0.9,0.9,39,0.00,,---,0.00,VWS V14.01,2013-11-04 06:49:00,
2013-11-03 23:54:00,57.6,32.2,29.79,SW,225,0.9,0.9,38,0.00,,---,0.00,VWS V14.01,2013-11-04 06:54:00,
2013-11-03 23:59:00,57.4,32.7,29.79,SW,225,0.9,0.9,39,0.00,,---,0.00,VWS V14.01,2013-11-04 06:59:00,